Time;durP1;ratioP1;P1;durP2;ratioP2;P2;SDS_P1;SDS_P2;PMS_P1;PMS_P2;Temp;Humidity;BMP_temperature;BMP_pressure;BME280_temperature;BME280_humidity;BME280_pressure;Samples;Min_cycle;Max_cycle;Signal;HPM_P1;HPM_P2
2024/02/21 00:03:05;;;;;;;7.50;3.40;;;;;;;8.17;66.48;99685.45;231911;204;137211;-67
2024/02/21 00:08:08;;;;;;;7.80;3.10;;;;;;;8.12;66.26;99684.80;231837;198;138196;-70
2024/02/21 00:13:12;;;;;;;6.30;3.50;;;;;;;8.10;66.24;99685.22;231635;198;153660;-66
2024/02/21 00:18:15;;;;;;;7.40;3.30;;;;;;;8.09;65.98;99683.16;231808;197;137315;-66
2024/02/21 00:23:18;;;;;;;8.30;2.90;;;;;;;8.02;65.86;99685.02;231861;201;138333;-65
2024/02/21 00:28:21;;;;;;;5.30;2.70;;;;;;;8.02;65.75;99685.17;231961;199;153219;-66
2024/02/21 00:33:25;;;;;;;8.70;3.00;;;;;;;8.10;65.56;99682.74;231827;198;138445;-65
2024/02/21 00:38:28;;;;;;;6.70;3.00;;;;;;;8.14;65.37;99685.23;231887;198;137278;-68
2024/02/21 00:43:32;;;;;;;8.70;3.40;;;;;;;8.13;65.28;99675.38;231838;205;153933;-70
2024/02/21 00:48:35;;;;;;;7.80;3.00;;;;;;;8.10;65.38;99678.52;231810;205;137498;-71
2024/02/21 00:53:39;;;;;;;9.90;3.90;;;;;;;8.02;65.77;99666.45;231806;202;137983;-70
2024/02/21 00:58:42;;;;;;;7.90;3.80;;;;;;;8.00;66.21;99662.83;232076;201;154052;-72
2024/02/21 01:03:45;;;;;;;9.90;4.60;;;;;;;7.92;66.70;99660.33;231710;198;138070;-71
2024/02/21 01:08:49;;;;;;;12.70;5.80;;;;;;;7.87;67.16;99657.01;231901;198;137486;-69
2024/02/21 01:13:52;;;;;;;13.20;6.10;;;;;;;7.85;67.59;99658.89;231777;205;153281;-67
2024/02/21 01:18:55;;;;;;;10.60;6.10;;;;;;;7.82;68.02;99656.70;231726;198;137639;-70
2024/02/21 01:23:59;;;;;;;11.20;6.60;;;;;;;7.78;68.27;99654.91;231952;198;137544;-71
2024/02/21 01:29:02;;;;;;;12.20;6.70;;;;;;;7.72;68.51;99651.80;231766;202;154108;-70
2024/02/21 01:34:05;;;;;;;12.90;6.40;;;;;;;7.69;68.88;99645.22;231937;197;137313;-72
2024/02/21 01:39:09;;;;;;;16.20;6.60;;;;;;;7.68;69.01;99636.77;231904;202;138770;-64
2024/02/21 01:44:13;;;;;;;15.10;6.80;;;;;;;7.70;68.99;99627.85;231888;201;153146;-69
2024/02/21 01:49:17;;;;;;;14.20;7.60;;;;;;;7.73;69.08;99624.56;231953;205;137735;-67
2024/02/21 01:54:20;;;;;;;13.20;7.70;;;;;;;7.76;69.06;99621.94;231964;198;138090;-68
2024/02/21 01:59:24;;;;;;;19.30;8.40;;;;;;;7.78;68.99;99621.67;231894;197;153146;-66
2024/02/21 02:04:27;;;;;;;18.90;7.70;;;;;;;7.77;69.24;99620.86;232003;198;138681;-66
2024/02/21 02:09:30;;;;;;;13.80;7.80;;;;;;;7.76;69.43;99621.06;232070;202;141712;-65
2024/02/21 02:14:34;;;;;;;17.80;8.10;;;;;;;7.70;69.71;99615.12;231888;198;153126;-64
2024/02/21 02:19:37;;;;;;;17.60;8.50;;;;;;;7.69;70.00;99613.59;231879;204;137918;-66
2024/02/21 02:24:40;;;;;;;18.40;8.90;;;;;;;7.61;70.15;99607.58;231906;204;137245;-66
2024/02/21 02:29:44;;;;;;;22.60;8.00;;;;;;;7.56;70.44;99612.52;232002;198;153356;-64
2024/02/21 02:34:47;;;;;;;17.10;7.10;;;;;;;7.49;70.73;99604.52;231936;198;138078;-63
2024/02/21 02:39:50;;;;;;;20.40;7.80;;;;;;;7.50;70.83;99601.66;231810;201;138751;-63
2024/02/21 02:44:53;;;;;;;16.70;7.30;;;;;;;7.51;70.89;99599.65;231902;198;153070;-63
2024/02/21 02:49:56;;;;;;;18.40;6.70;;;;;;;7.52;71.02;99595.03;231729;198;137812;-63
2024/02/21 02:55:01;;;;;;;10.90;6.20;;;;;;;7.51;70.85;99604.96;231849;202;138271;-69
2024/02/21 03:00:06;;;;;;;16.20;6.50;;;;;;;7.49;70.93;99598.86;232054;204;155009;-69
2024/02/21 03:05:13;;;;;;;16.60;6.20;;;;;;;7.50;71.01;99601.65;231977;204;138399;-69
2024/02/21 03:10:17;;;;;;;14.20;6.90;;;;;;;7.50;70.99;99592.81;231925;198;137340;-66
2024/02/21 03:15:21;;;;;;;16.20;6.70;;;;;;;7.41;71.03;99590.36;231834;198;153325;-66
2024/02/21 03:20:24;;;;;;;14.50;6.60;;;;;;;7.40;71.28;99584.92;231884;203;140034;-66
2024/02/21 03:25:28;;;;;;;20.80;6.80;;;;;;;7.42;71.38;99576.59;232006;204;138189;-66
2024/02/21 03:30:31;;;;;;;12.70;5.80;;;;;;;7.45;71.37;99581.89;231974;201;153421;-66
2024/02/21 03:35:34;;;;;;;18.30;6.40;;;;;;;7.47;71.38;99580.23;231980;201;138945;-67
2024/02/21 03:40:37;;;;;;;14.40;6.40;;;;;;;7.55;71.27;99576.73;232055;201;137747;-67
2024/02/21 03:45:40;;;;;;;14.50;6.20;;;;;;;7.58;71.12;99575.38;231844;205;154350;-67
2024/02/21 03:50:44;;;;;;;17.50;6.50;;;;;;;7.54;71.21;99574.83;231963;197;138146;-66
2024/02/21 03:55:47;;;;;;;16.90;6.40;;;;;;;7.50;71.14;99569.52;231784;197;142434;-67
2024/02/21 04:00:51;;;;;;;15.30;6.90;;;;;;;7.44;71.30;99577.16;232045;205;154025;-67
2024/02/21 04:05:55;;;;;;;15.50;7.10;;;;;;;7.41;71.41;99571.67;231825;204;138105;-64
2024/02/21 04:10:58;;;;;;;17.40;6.30;;;;;;;7.33;71.55;99568.79;231966;202;137904;-63
2024/02/21 04:16:03;;;;;;;18.40;7.10;;;;;;;7.28;71.71;99556.64;231827;206;154597;-63
2024/02/21 04:21:06;;;;;;;18.20;6.90;;;;;;;7.29;71.68;99563.64;231852;204;154459;-64
2024/02/21 04:26:09;;;;;;;19.60;7.20;;;;;;;7.32;71.76;99556.64;231851;201;137543;-66
2024/02/21 04:31:13;;;;;;;17.10;7.70;;;;;;;7.32;71.72;99553.30;231830;204;153083;-62
2024/02/21 04:36:16;;;;;;;24.00;8.20;;;;;;;7.32;71.73;99547.83;231825;204;137500;-61
2024/02/21 04:41:19;;;;;;;57.60;36.30;;;;;;;7.35;72.08;99549.30;232050;205;137720;-62
2024/02/21 04:46:22;;;;;;;22.10;9.00;;;;;;;7.38;71.63;99542.46;231947;198;155196;-62
2024/02/21 04:51:26;;;;;;;38.10;20.10;;;;;;;7.32;71.62;99552.59;231956;204;137983;-61
2024/02/21 04:56:29;;;;;;;15.30;7.50;;;;;;;7.37;72.02;99550.47;231917;204;138383;-63
2024/02/21 05:01:32;;;;;;;19.20;7.00;;;;;;;7.37;71.41;99558.77;231657;205;153258;-61
2024/02/21 05:06:39;;;;;;;18.80;7.10;;;;;;;7.36;71.51;99564.61;231758;201;137435;-63
2024/02/21 05:11:43;;;;;;;17.90;7.00;;;;;;;7.44;71.40;99565.54;231879;198;138814;-62
2024/02/21 05:16:46;;;;;;;20.10;7.30;;;;;;;7.47;71.28;99563.46;232047;198;153446;-62
2024/02/21 05:21:49;;;;;;;20.50;6.70;;;;;;;7.47;71.18;99557.09;232029;198;138013;-61
2024/02/21 05:26:54;;;;;;;16.10;6.40;;;;;;;7.44;70.98;99549.30;231979;204;138328;-62
2024/02/21 05:31:57;;;;;;;11.20;6.30;;;;;;;7.41;71.06;99553.64;231832;198;154218;-62
2024/02/21 05:37:01;;;;;;;18.90;6.20;;;;;;;7.39;71.10;99556.40;231898;201;138550;-62
2024/02/21 05:42:04;;;;;;;12.80;5.20;;;;;;;7.37;71.12;99560.88;231843;201;139164;-51
2024/02/21 05:47:10;;;;;;;17.80;7.00;;;;;;;7.41;71.22;99562.66;232002;201;154049;-52
2024/02/21 05:52:13;;;;;;;16.30;6.70;;;;;;;7.50;71.22;99560.02;232060;198;137348;-53
2024/02/21 05:57:19;;;;;;;19.60;7.90;;;;;;;7.52;71.20;99550.88;231804;198;137371;-54
2024/02/21 06:02:22;;;;;;;17.60;7.30;;;;;;;7.61;71.93;99550.00;232131;201;153236;-54
2024/02/21 06:07:26;;;;;;;17.50;6.60;;;;;;;7.68;71.61;99552.90;231837;202;138224;-54
2024/02/21 06:12:29;;;;;;;15.90;5.90;;;;;;;7.72;71.49;99546.89;231850;197;138962;-54
2024/02/21 06:17:32;;;;;;;11.90;5.90;;;;;;;7.66;71.42;99546.98;231690;205;153686;-54
2024/02/21 06:22:35;;;;;;;13.70;5.30;;;;;;;7.64;71.69;99542.14;231939;198;139016;-53
2024/02/21 06:27:39;;;;;;;19.40;6.30;;;;;;;7.72;71.47;99546.52;231892;201;137976;-55
2024/02/21 06:32:42;;;;;;;14.00;5.80;;;;;;;7.76;71.31;99541.23;231802;201;155597;-53
2024/02/21 06:37:50;;;;;;;13.20;5.50;;;;;;;7.74;71.42;99528.60;231803;197;137677;-54
2024/02/21 06:42:54;;;;;;;17.30;5.90;;;;;;;7.70;71.54;99538.14;231785;198;137362;-53
2024/02/21 06:47:57;;;;;;;17.80;5.50;;;;;;;7.72;71.44;99536.65;231798;198;153018;-52
2024/02/21 06:53:00;;;;;;;16.70;6.00;;;;;;;7.77;71.42;99543.67;231698;202;138157;-53
2024/02/21 06:58:04;;;;;;;12.70;5.10;;;;;;;7.83;71.08;99539.19;232029;202;140180;-53
2024/02/21 07:03:07;;;;;;;10.20;4.70;;;;;;;7.85;70.88;99539.64;231856;201;153976;-53
2024/02/21 07:08:10;;;;;;;71.30;46.00;;;;;;;7.96;71.07;99526.27;231731;202;138219;-52
2024/02/21 07:13:15;;;;;;;13.70;5.70;;;;;;;8.10;70.75;99529.17;231778;202;137704;-56
2024/02/21 07:18:19;;;;;;;14.40;6.60;;;;;;;8.15;69.98;99531.96;231844;198;153102;-56
2024/02/21 07:23:23;;;;;;;15.80;5.80;;;;;;;8.22;69.70;99527.94;231849;198;141057;-57
2024/02/21 07:28:29;;;;;;;;;;;;;;;8.26;69.30;99524.40;232001;198;138246;-54
2024/02/21 07:33:32;;;;;;;16.70;6.50;;;;;;;8.23;69.07;99521.17;231852;198;153783;-59
2024/02/21 07:38:36;;;;;;;11.30;5.20;;;;;;;8.23;68.93;99520.48;231731;204;138884;-58
2024/02/21 07:43:39;;;;;;;13.20;5.90;;;;;;;8.21;68.29;99516.46;231833;198;138271;-59
2024/02/21 07:48:43;;;;;;;14.20;5.80;;;;;;;8.17;68.20;99511.55;231723;199;155732;-57
2024/02/21 07:53:47;;;;;;;10.50;4.60;;;;;;;8.22;68.44;99504.61;231638;205;140331;-56
2024/02/21 07:58:50;;;;;;;14.40;4.70;;;;;;;8.39;68.37;99499.81;232002;204;138813;-59
2024/02/21 08:03:54;;;;;;;13.70;5.00;;;;;;;8.54;67.81;99494.33;231824;198;153382;-58
2024/02/21 08:08:57;;;;;;;13.00;5.20;;;;;;;8.68;67.50;99488.38;231920;197;138893;-57
2024/02/21 08:14:00;;;;;;;12.40;5.50;;;;;;;8.79;67.18;99490.36;231764;201;137684;-57
2024/02/21 08:19:04;;;;;;;9.10;4.00;;;;;;;8.86;66.08;99489.84;231820;198;154568;-57
2024/02/21 08:24:07;;;;;;;16.90;4.40;;;;;;;8.90;65.86;99487.14;231740;201;137860;-57
2024/02/21 08:29:11;;;;;;;12.10;4.00;;;;;;;8.97;65.97;99481.66;231841;199;142401;-59
2024/02/21 08:34:15;;;;;;;14.40;4.40;;;;;;;9.05;64.88;99474.60;231981;202;153066;-58
2024/02/21 08:39:19;;;;;;;13.30;4.10;;;;;;;9.06;64.85;99475.23;231915;205;138620;-59
2024/02/21 08:44:28;;;;;;;12.60;4.40;;;;;;;9.12;64.36;99474.38;231933;201;138552;-54
2024/02/21 08:49:32;;;;;;;13.20;4.80;;;;;;;9.10;63.71;99471.34;231704;202;153875;-54
2024/02/21 08:54:37;;;;;;;16.50;5.20;;;;;;;9.03;63.93;99463.52;231742;198;137591;-55
2024/02/21 08:59:40;;;;;;;15.10;5.40;;;;;;;9.05;63.73;99457.42;231893;201;137485;-55
2024/02/21 09:04:43;;;;;;;12.00;4.60;;;;;;;9.14;63.63;99452.90;231979;204;154488;-52
2024/02/21 09:09:47;;;;;;;12.90;4.50;;;;;;;9.25;63.60;99449.00;231832;197;138700;-54
2024/02/21 09:14:50;;;;;;;11.20;4.70;;;;;;;9.44;63.47;99442.52;231773;198;137895;-55
2024/02/21 09:19:55;;;;;;;11.80;4.50;;;;;;;9.54;62.93;99439.36;231915;198;153246;-52
2024/02/21 09:24:59;;;;;;;12.50;4.70;;;;;;;9.53;62.38;99444.90;231938;198;138425;-55
2024/02/21 09:30:04;;;;;;;10.30;4.20;;;;;;;9.55;62.43;99445.17;231883;198;139091;-55
2024/02/21 09:35:08;;;;;;;14.70;4.30;;;;;;;9.61;62.09;99449.43;231731;202;153596;-56
2024/02/21 09:40:17;;;;;;;33.70;20.20;;;;;;;9.64;61.41;99448.42;231913;201;137257;-54
2024/02/21 09:45:24;;;;;;;10.40;3.70;;;;;;;9.70;61.32;99448.81;231924;204;137791;-55
2024/02/21 09:50:28;;;;;;;15.90;4.10;;;;;;;9.74;61.00;99452.15;231836;198;155405;-55
2024/02/21 09:55:34;;;;;;;8.90;3.30;;;;;;;9.75;60.56;99452.30;231692;198;137923;-58
2024/02/21 10:00:38;;;;;;;14.00;3.80;;;;;;;9.77;60.33;99448.64;231738;197;137859;-57
2024/02/21 10:05:48;;;;;;;101.80;62.70;;;;;;;9.85;60.75;99439.35;231741;197;153232;-55
2024/02/21 10:10:54;;;;;;;55.50;37.10;;;;;;;10.09;60.90;99435.73;231874;204;137487;-58
2024/02/21 10:16:09;;;;;;;11.10;4.40;;;;;;;10.27;60.52;99427.73;231782;198;251183;-58
2024/02/21 10:21:13;;;;;;;9.10;3.60;;;;;;;10.30;59.38;99423.49;231862;202;153221;-58
2024/02/21 10:26:19;;;;;;;11.30;3.50;;;;;;;10.28;58.75;99422.73;231768;204;138439;-58
2024/02/21 10:31:28;;;;;;;9.30;2.80;;;;;;;10.42;59.13;99413.59;231818;198;138386;-58
2024/02/21 10:36:32;;;;;;;285.70;191.90;;;;;;;10.65;58.07;99406.66;231833;204;153177;-59
2024/02/21 10:41:36;;;;;;;13.70;6.40;;;;;;;10.78;58.00;99397.73;231856;201;137915;-59
2024/02/21 10:46:42;;;;;;;6.40;3.10;;;;;;;10.84;56.97;99391.22;231936;202;138846;-59
2024/02/21 10:51:47;;;;;;;6.50;3.00;;;;;;;10.91;56.72;99378.34;231866;204;153605;-59
2024/02/21 10:56:51;;;;;;;6.40;2.80;;;;;;;11.12;56.68;99374.27;231597;198;138727;-60
2024/02/21 11:01:54;;;;;;;6.90;3.20;;;;;;;11.35;55.80;99373.09;231880;204;138306;-60
2024/02/21 11:07:03;;;;;;;7.90;2.80;;;;;;;11.41;54.99;99363.50;231807;198;154998;-59
2024/02/21 11:12:19;;;;;;;8.90;2.70;;;;;;;11.48;54.82;99347.98;231796;204;138013;-59
2024/02/21 11:17:26;;;;;;;9.40;3.00;;;;;;;11.56;54.90;99344.30;231812;205;137417;-60
2024/02/21 11:22:40;;;;;;;7.50;3.10;;;;;;;11.51;54.76;99347.08;231741;201;154666;-59
2024/02/21 11:27:47;;;;;;;8.40;3.70;;;;;;;11.40;55.13;99339.92;231772;204;137960;-58
2024/02/21 11:32:58;;;;;;;7.60;3.90;;;;;;;11.40;55.38;99330.86;231833;205;138440;-59
2024/02/21 11:38:16;;;;;;;10.20;3.10;;;;;;;11.40;54.66;99332.44;231908;201;154481;-58
2024/02/21 11:43:20;;;;;;;7.00;2.80;;;;;;;11.38;54.74;99322.48;231795;201;137427;-60
2024/02/21 11:48:24;;;;;;;7.80;3.40;;;;;;;11.34;55.04;99314.37;231733;198;139244;-60
2024/02/21 11:53:30;;;;;;;7.50;3.20;;;;;;;11.29;55.45;99305.09;231945;201;153486;-58
2024/02/21 11:58:38;;;;;;;7.20;3.00;;;;;;;11.21;55.44;99299.52;231895;202;142519;-59
2024/02/21 12:03:49;;;;;;;10.80;3.50;;;;;;;11.08;55.86;99293.34;231879;199;138135;-59
2024/02/21 12:08:58;;;;;;;11.70;4.10;;;;;;;10.94;56.10;99295.80;231717;202;153638;-60
2024/02/21 12:14:03;;;;;;;6.70;3.60;;;;;;;10.94;56.61;99290.52;231561;205;140064;-58
2024/02/21 12:19:08;;;;;;;9.80;3.50;;;;;;;10.95;56.48;99291.13;231667;204;138137;-59
2024/02/21 12:24:21;;;;;;;8.70;3.90;;;;;;;11.01;56.13;99280.28;231865;198;155224;-61
2024/02/21 12:29:24;;;;;;;10.50;3.80;;;;;;;11.12;56.10;99277.48;231687;202;137801;-60
2024/02/21 12:34:31;;;;;;;11.60;3.40;;;;;;;11.22;55.78;99272.80;231679;205;138910;-59
2024/02/21 12:39:51;;;;;;;8.70;3.80;;;;;;;11.30;55.55;99269.80;231609;197;153654;-60
2024/02/21 12:44:54;;;;;;;7.10;3.10;;;;;;;11.35;55.18;99271.14;231631;198;138509;-61
2024/02/21 12:49:58;;;;;;;9.30;3.10;;;;;;;11.36;54.94;99267.51;231764;197;138138;-60
2024/02/21 12:55:02;;;;;;;11.10;3.60;;;;;;;11.36;55.05;99261.61;231685;198;156451;-61
2024/02/21 13:00:08;;;;;;;13.40;3.70;;;;;;;11.38;54.77;99254.45;231812;198;137885;-60
2024/02/21 13:05:12;;;;;;;11.20;3.60;;;;;;;11.39;54.51;99251.67;231675;198;137966;-60
2024/02/21 13:10:15;;;;;;;7.10;3.30;;;;;;;11.38;53.99;99246.80;231824;204;153526;-61
2024/02/21 13:15:19;;;;;;;12.20;3.90;;;;;;;11.27;53.88;99237.18;231701;197;138285;-61
2024/02/21 13:20:23;;;;;;;7.40;3.40;;;;;;;11.19;54.33;99237.46;231725;201;138059;-61
2024/02/21 13:25:26;;;;;;;10.80;3.70;;;;;;;11.09;54.52;99239.68;231734;198;153827;-62
2024/02/21 13:30:30;;;;;;;10.30;3.60;;;;;;;11.05;55.07;99235.13;231799;204;137951;-64
2024/02/21 13:35:33;;;;;;;9.60;3.50;;;;;;;11.03;54.85;99233.12;231900;204;138323;-63
2024/02/21 13:40:36;;;;;;;25.50;15.10;;;;;;;10.97;55.10;99231.70;231756;204;153449;-61
2024/02/21 13:45:42;;;;;;;9.20;3.80;;;;;;;10.92;55.40;99229.73;231774;205;138350;-61
2024/02/21 13:50:45;;;;;;;9.30;3.70;;;;;;;10.82;56.20;99220.89;231649;198;138148;-62
2024/02/21 13:55:49;;;;;;;8.40;3.40;;;;;;;10.78;57.10;99217.98;231727;198;153481;-61
2024/02/21 14:00:53;;;;;;;9.90;4.00;;;;;;;10.66;57.53;99218.65;231685;198;139738;-61
2024/02/21 14:05:57;;;;;;;8.90;3.80;;;;;;;10.59;57.71;99219.93;231809;201;137665;-61
2024/02/21 14:11:00;;;;;;;9.30;3.50;;;;;;;10.50;57.39;99211.45;231531;202;154732;-62
2024/02/21 14:16:10;;;;;;;10.60;3.60;;;;;;;10.45;57.69;99214.41;231758;197;138323;-64
2024/02/21 14:21:13;;;;;;;9.90;3.90;;;;;;;10.47;57.83;99207.20;231740;198;137689;-63
2024/02/21 14:26:17;;;;;;;13.50;6.30;;;;;;;10.53;58.85;99204.16;231702;201;154475;-61
2024/02/21 14:31:20;;;;;;;10.70;4.20;;;;;;;10.50;58.17;99208.42;231774;201;138014;-63
2024/02/21 14:36:24;;;;;;;11.10;4.20;;;;;;;10.35;58.29;99208.42;231819;198;137813;-61
2024/02/21 14:41:28;;;;;;;15.20;4.90;;;;;;;10.29;58.82;99199.95;231845;201;155098;-62
2024/02/21 14:46:32;;;;;;;11.90;3.90;;;;;;;10.25;59.43;99194.10;231942;204;137542;-63
2024/02/21 14:51:36;;;;;;;11.60;4.60;;;;;;;10.20;60.03;99187.83;231766;202;138155;-62
2024/02/21 14:56:39;;;;;;;10.90;4.00;;;;;;;10.20;60.78;99178.77;231850;202;153171;-61
2024/02/21 15:01:42;;;;;;;12.50;4.60;;;;;;;10.19;61.44;99173.71;231757;198;138364;-61
2024/02/21 15:06:45;;;;;;;15.10;4.80;;;;;;;10.15;62.07;99167.33;231796;204;138553;-65
2024/02/21 15:11:49;;;;;;;9.40;4.70;;;;;;;10.08;62.90;99166.50;231709;204;153822;-63
2024/02/21 15:16:52;;;;;;;11.00;4.90;;;;;;;10.04;63.22;99162.14;231796;205;137846;-63
2024/02/21 15:21:55;;;;;;;12.60;5.20;;;;;;;10.01;63.71;99157.02;231874;198;138499;-64
2024/02/21 15:26:59;;;;;;;13.30;5.30;;;;;;;9.98;64.27;99155.60;231705;202;153252;-64
2024/02/21 15:32:02;;;;;;;11.50;5.20;;;;;;;9.97;64.41;99151.21;231504;202;137131;-62
2024/02/21 15:37:06;;;;;;;12.80;5.50;;;;;;;9.98;64.59;99150.27;231879;198;138461;-63
2024/02/21 15:42:10;;;;;;;55.10;37.20;;;;;;;9.96;64.77;99130.55;231629;205;153930;-64
2024/02/21 15:47:13;;;;;;;12.80;5.80;;;;;;;10.00;65.45;99122.31;231814;204;138986;-64
2024/02/21 15:52:16;;;;;;;314.10;199.10;;;;;;;9.98;65.14;99124.20;231870;202;138488;-63
2024/02/21 15:57:19;;;;;;;16.80;7.10;;;;;;;10.10;65.46;99124.38;231711;198;153633;-63
2024/02/21 16:02:24;;;;;;;12.90;6.10;;;;;;;10.15;64.98;99125.50;231785;196;138320;-63
2024/02/21 16:07:28;;;;;;;13.00;6.60;;;;;;;10.11;65.01;99130.02;231606;198;137542;-62
2024/02/21 16:12:32;;;;;;;15.60;6.10;;;;;;;10.14;64.88;99130.55;231581;202;154067;-61
2024/02/21 16:17:36;;;;;;;13.00;5.70;;;;;;;10.10;64.69;99132.89;231592;202;139820;-64
2024/02/21 16:22:39;;;;;;;11.50;5.90;;;;;;;10.11;64.49;99125.40;232016;197;137312;-64
2024/02/21 16:27:43;;;;;;;13.00;5.20;;;;;;;10.06;64.31;99121.26;231806;202;153558;-65
2024/02/21 16:32:46;;;;;;;10.70;5.50;;;;;;;10.00;64.07;99117.02;231751;204;138647;-62
2024/02/21 16:37:49;;;;;;;16.10;11.10;;;;;;;10.07;65.60;99109.86;231727;198;137815;-65
2024/02/21 16:42:53;;;;;;;9.60;4.30;;;;;;;10.14;63.84;99098.10;231754;198;154779;-65
2024/02/21 16:47:56;;;;;;;10.10;4.80;;;;;;;10.11;63.20;99089.06;231853;201;138277;-65
2024/02/21 16:52:59;;;;;;;11.10;4.40;;;;;;;10.05;63.08;99089.46;231844;198;137914;-62
2024/02/21 16:58:04;;;;;;;9.10;4.70;;;;;;;9.99;62.95;99091.38;231829;198;154221;-63
2024/02/21 17:03:08;;;;;;;40.50;29.10;;;;;;;9.97;63.16;99093.44;231625;198;138255;-63
2024/02/21 17:08:12;;;;;;;12.60;5.70;;;;;;;9.99;63.47;99088.52;231849;200;137967;-62
2024/02/21 17:13:16;;;;;;;10.10;5.20;;;;;;;9.89;63.16;99079.55;231710;197;154184;-62
2024/02/21 17:18:19;;;;;;;11.00;5.60;;;;;;;9.80;63.14;99080.81;231758;204;138390;-60
2024/02/21 17:23:22;;;;;;;11.60;5.80;;;;;;;9.77;63.24;99084.17;231752;204;137727;-62
2024/02/21 17:28:26;;;;;;;11.20;5.80;;;;;;;9.73;63.24;99078.02;231925;202;153250;-64
2024/02/21 17:33:29;;;;;;;14.90;6.30;;;;;;;9.65;63.34;99072.97;231787;198;137433;-66
2024/02/21 17:38:32;;;;;;;30.00;17.20;;;;;;;9.74;64.70;99060.94;231767;197;138327;-62
2024/02/21 17:43:36;;;;;;;12.90;7.00;;;;;;;9.80;63.47;99053.33;231589;201;154036;-62
2024/02/21 17:48:39;;;;;;;14.20;6.60;;;;;;;9.68;63.21;99046.95;231727;201;137871;-62
2024/02/21 17:53:42;;;;;;;11.10;6.10;;;;;;;9.57;63.17;99044.23;231840;198;137508;-64
2024/02/21 17:58:48;;;;;;;18.60;6.90;;;;;;;9.48;63.31;99038.87;231755;201;154658;-62
2024/02/21 18:03:51;;;;;;;43.30;35.30;;;;;;;9.44;63.37;99038.91;231656;198;138461;-64
2024/02/21 18:08:57;;;;;;;53.00;35.70;;;;;;;9.47;63.74;99033.30;231745;198;138293;-64
2024/02/21 18:14:04;;;;;;;;;;;;;;;9.48;63.62;99027.21;231811;200;153676;-65
2024/02/21 18:19:09;;;;;;;12.90;7.20;;;;;;;9.40;63.16;99029.64;231861;202;137437;-62
2024/02/21 18:24:12;;;;;;;28.40;14.60;;;;;;;9.31;63.38;99024.32;231881;198;140655;-63
2024/02/21 18:29:16;;;;;;;12.00;7.40;;;;;;;9.29;64.09;99021.03;231942;197;153245;-65
2024/02/21 18:34:21;;;;;;;12.60;7.20;;;;;;;9.30;63.27;99024.00;232061;201;138048;-65
2024/02/21 18:39:24;;;;;;;16.20;7.80;;;;;;;9.24;63.31;99023.81;232097;204;137782;-64
2024/02/21 18:44:27;;;;;;;16.50;7.00;;;;;;;9.21;63.25;99017.42;232054;200;154452;-65
2024/02/21 18:49:31;;;;;;;12.50;6.00;;;;;;;9.13;63.25;99009.72;231989;198;137492;-65
2024/02/21 18:54:39;;;;;;;12.80;5.80;;;;;;;9.05;63.31;99013.39;231934;204;137365;-64
2024/02/21 18:59:43;;;;;;;15.10;6.80;;;;;;;9.01;63.24;99008.12;232092;201;153584;-64
2024/02/21 19:04:47;;;;;;;28.40;24.60;;;;;;;8.94;63.26;99001.91;232050;197;138466;-63
2024/02/21 19:09:50;;;;;;;17.60;10.90;;;;;;;9.07;64.25;98992.92;232110;204;137592;-63
2024/02/21 19:14:53;;;;;;;12.70;7.20;;;;;;;9.19;63.10;98978.06;232068;204;153382;-62
2024/02/21 19:19:57;;;;;;;13.10;6.60;;;;;;;9.07;62.72;98970.77;232015;204;137446;-67
2024/02/21 19:25:06;;;;;;;16.00;7.20;;;;;;;8.99;62.76;98965.39;232103;204;138493;-66
2024/02/21 19:30:13;;;;;;;15.30;6.50;;;;;;;8.89;62.86;98961.02;232047;204;153111;-65
2024/02/21 19:35:17;;;;;;;20.10;10.10;;;;;;;8.93;64.16;98958.27;232103;204;140305;-65
2024/02/21 19:40:20;;;;;;;15.60;7.60;;;;;;;8.88;63.05;98957.17;232281;197;138882;-65
2024/02/21 19:45:25;;;;;;;15.40;7.50;;;;;;;8.71;63.25;98948.91;232034;201;153229;-63
2024/02/21 19:50:32;;;;;;;15.80;6.80;;;;;;;8.62;63.43;98944.14;231886;201;138118;-66
2024/02/21 19:55:36;;;;;;;15.60;7.50;;;;;;;8.52;63.57;98939.36;231974;197;138490;-65
2024/02/21 20:00:39;;;;;;;14.40;7.20;;;;;;;8.42;63.76;98940.81;231913;204;153727;-66
2024/02/21 20:05:43;;;;;;;15.20;7.30;;;;;;;8.42;64.02;98934.44;232100;200;137740;-67
2024/02/21 20:10:48;;;;;;;18.80;7.60;;;;;;;8.39;63.88;98936.57;232177;201;138350;-66
2024/02/21 20:15:52;;;;;;;15.20;7.10;;;;;;;8.34;64.08;98928.86;232219;197;153299;-65
2024/02/21 20:20:55;;;;;;;14.10;6.80;;;;;;;8.29;64.08;98928.02;232119;202;137264;-64
2024/02/21 20:25:59;;;;;;;16.70;7.40;;;;;;;8.30;64.12;98927.81;232067;197;138672;-64
2024/02/21 20:31:03;;;;;;;13.40;7.70;;;;;;;8.37;64.13;98936.48;232051;204;153253;-65
2024/02/21 20:36:06;;;;;;;16.20;8.10;;;;;;;8.43;63.91;98936.52;232068;201;138276;-64
2024/02/21 20:41:17;;;;;;;25.00;9.60;;;;;;;8.46;63.73;98930.85;232192;198;137570;-66
2024/02/21 20:46:20;;;;;;;15.60;8.60;;;;;;;8.38;63.76;98919.81;232189;201;153914;-66
2024/02/21 20:51:24;;;;;;;25.40;8.50;;;;;;;8.26;63.84;98909.32;232068;198;138634;-65
2024/02/21 20:56:27;;;;;;;15.90;8.60;;;;;;;8.16;64.25;98906.52;231853;204;137472;-64
2024/02/21 21:01:30;;;;;;;16.60;8.70;;;;;;;8.14;64.47;98893.52;232091;204;154596;-63
2024/02/21 21:06:38;;;;;;;16.40;8.20;;;;;;;8.15;64.56;98885.90;232005;197;139220;-64
2024/02/21 21:11:41;;;;;;;17.80;8.90;;;;;;;8.14;64.51;98884.84;232146;204;137660;-64
2024/02/21 21:16:48;;;;;;;21.00;9.30;;;;;;;8.08;64.65;98890.52;232248;204;153264;-65
2024/02/21 21:21:53;;;;;;;14.50;8.60;;;;;;;7.98;64.87;98893.67;231902;201;137290;-65
2024/02/21 21:26:56;;;;;;;24.30;8.60;;;;;;;7.88;65.14;98885.56;232015;198;137643;-65
2024/02/21 21:32:00;;;;;;;20.80;8.90;;;;;;;7.77;65.57;98883.30;232110;204;153459;-65
2024/02/21 21:37:03;;;;;;;24.70;8.60;;;;;;;7.68;65.88;98882.06;232118;204;139346;-64
2024/02/21 21:42:07;;;;;;;22.60;8.10;;;;;;;7.61;66.28;98873.59;231926;198;137359;-64
2024/02/21 21:47:13;;;;;;;19.20;8.60;;;;;;;7.55;66.31;98865.59;232018;200;154002;-64
2024/02/21 21:52:16;;;;;;;25.80;8.90;;;;;;;7.47;66.53;98857.55;232059;197;138408;-65
2024/02/21 21:57:24;;;;;;;;;;;;;;;7.43;66.74;98852.09;231956;202;138164;-64
2024/02/21 22:02:27;;;;;;;25.50;11.10;;;;;;;7.43;66.83;98845.02;232116;201;156474;-64
2024/02/21 22:07:30;;;;;;;20.30;10.80;;;;;;;7.45;66.85;98847.25;232057;204;138348;-66
2024/02/21 22:12:34;;;;;;;27.30;11.80;;;;;;;7.44;66.81;98846.41;232069;200;138242;-66
2024/02/21 22:17:37;;;;;;;26.60;12.50;;;;;;;7.37;66.84;98842.38;232055;204;153607;-64
2024/02/21 22:22:40;;;;;;;25.60;13.50;;;;;;;7.25;67.02;98832.04;232194;204;139043;-64
2024/02/21 22:27:44;;;;;;;24.50;13.10;;;;;;;7.14;67.04;98828.73;232084;201;138602;-64
2024/02/21 22:32:47;;;;;;;25.90;12.00;;;;;;;7.08;67.08;98826.05;231976;198;153338;-65
2024/02/21 22:37:50;;;;;;;28.20;13.10;;;;;;;6.94;67.05;98821.09;232014;198;137454;-65
2024/02/21 22:42:54;;;;;;;28.80;13.70;;;;;;;6.83;67.39;98812.64;232067;204;139370;-66
2024/02/21 22:47:57;;;;;;;25.80;12.40;;;;;;;6.74;67.60;98805.33;232089;198;155257;-66
2024/02/21 22:53:00;;;;;;;28.00;12.60;;;;;;;6.67;67.79;98792.15;231774;204;138325;-66
2024/02/21 22:58:04;;;;;;;25.00;13.60;;;;;;;6.54;67.77;98778.33;232203;204;141255;-63
2024/02/21 23:03:08;;;;;;;24.80;12.40;;;;;;;6.47;68.02;98770.42;231759;198;154491;-63
2024/02/21 23:08:14;;;;;;;28.40;12.30;;;;;;;6.36;68.36;98770.24;231862;199;137498;-62
2024/02/21 23:13:17;;;;;;;26.80;12.50;;;;;;;6.27;68.77;98765.75;231587;198;138592;-63
2024/02/21 23:18:20;;;;;;;23.70;11.40;;;;;;;6.24;69.11;98759.56;231811;198;153263;-63
2024/02/21 23:23:23;;;;;;;20.90;10.80;;;;;;;6.25;69.08;98752.64;231592;199;139725;-65
2024/02/21 23:28:26;;;;;;;22.90;11.90;;;;;;;6.27;68.98;98747.06;232031;204;137343;-63
2024/02/21 23:33:33;;;;;;;24.10;11.70;;;;;;;6.27;69.02;98741.07;231944;201;152958;-65